Time;durP1;ratioP1;P1;durP2;ratioP2;P2;SDS_P1;SDS_P2;PMS_P1;PMS_P2;Temp;Humidity;BMP_temperature;BMP_pressure;BME280_temperature;BME280_humidity;BME280_pressure;Samples;Min_cycle;Max_cycle;Signal;HPM_P1;HPM_P2
2023/10/31 00:00:38;;;;;;;0.15;0.15;;;12.70;90.60;;;;;;4987428;28;20027;-64
2023/10/31 00:03:03;;;;;;;0.40;0.20;;;12.70;91.00;;;;;;4988237;28;20266;-64
2023/10/31 00:05:29;;;;;;;0.15;0.15;;;12.70;90.60;;;;;;4988750;28;20057;-64
2023/10/31 00:07:55;;;;;;;0.35;0.13;;;12.70;90.70;;;;;;4986041;28;20045;-64
2023/10/31 00:10:20;;;;;;;0.68;0.57;;;12.60;90.60;;;;;;4988337;28;20546;-64
2023/10/31 00:12:46;;;;;;;0.17;0.17;;;12.60;91.00;;;;;;4986337;28;20049;-64
2023/10/31 00:15:11;;;;;;;0.20;0.20;;;12.60;90.70;;;;;;4986804;28;20133;-64
2023/10/31 00:17:37;;;;;;;0.30;0.20;;;12.60;90.70;;;;;;4987455;28;20031;-62
2023/10/31 00:20:03;;;;;;;1.65;0.30;;;12.60;90.70;;;;;;4987717;28;20038;-64
2023/10/31 00:22:28;;;;;;;0.28;0.28;;;12.60;90.70;;;;;;4987089;28;20672;-63
2023/10/31 00:24:54;;;;;;;0.40;0.40;;;12.60;90.80;;;;;;4986631;28;20430;-64
2023/10/31 00:27:20;;;;;;;0.30;0.30;;;12.60;90.80;;;;;;4986885;28;20402;-64
2023/10/31 00:29:45;;;;;;;0.40;0.40;;;12.50;90.80;;;;;;4986977;28;20031;-64
2023/10/31 00:32:11;;;;;;;0.45;0.38;;;12.50;90.80;;;;;;4986293;28;20042;-64
2023/10/31 00:34:37;;;;;;;0.32;0.32;;;12.50;90.90;;;;;;4986507;28;20042;-63
2023/10/31 00:37:02;;;;;;;0.40;0.40;;;12.50;90.90;;;;;;4986909;28;20050;-63
2023/10/31 00:39:28;;;;;;;0.43;0.40;;;12.50;91.00;;;;;;4987727;28;20031;-62
2023/10/31 00:41:53;;;;;;;0.32;0.32;;;12.50;91.00;;;;;;4986981;28;20034;-63
2023/10/31 00:44:19;;;;;;;0.60;0.45;;;12.50;91.00;;;;;;4986773;28;20041;-63
2023/10/31 00:46:45;;;;;;;0.82;0.50;;;12.50;91.00;;;;;;4986382;28;20070;-64
2023/10/31 00:49:10;;;;;;;0.32;0.32;;;12.50;91.00;;;;;;4986723;28;20153;-64
2023/10/31 00:51:36;;;;;;;0.60;0.50;;;12.50;91.00;;;;;;4986787;28;20042;-64
2023/10/31 00:54:01;;;;;;;0.40;0.40;;;12.50;91.00;;;;;;4986450;28;20058;-64
2023/10/31 00:56:27;;;;;;;0.50;0.50;;;12.50;91.00;;;;;;4986434;28;20054;-63
2023/10/31 00:58:52;;;;;;;0.50;0.50;;;12.50;91.00;;;;;;4986299;28;20041;-64
2023/10/31 01:01:18;;;;;;;0.57;0.57;;;12.50;91.00;;;;;;4986526;28;20045;-62
2023/10/31 01:03:44;;;;;;;0.65;0.60;;;12.50;91.00;;;;;;4986406;28;20506;-64
2023/10/31 01:06:10;;;;;;;0.45;0.45;;;12.50;91.10;;;;;;4985724;28;20037;-64
2023/10/31 01:08:35;;;;;;;0.77;0.50;;;12.50;91.10;;;;;;4985027;28;20022;-64
2023/10/31 01:11:01;;;;;;;0.50;0.50;;;12.50;91.10;;;;;;4984758;28;20030;-64
2023/10/31 01:13:26;;;;;;;2.08;0.50;;;12.50;91.10;;;;;;4986697;28;20034;-64
2023/10/31 01:15:52;;;;;;;1.70;0.50;;;12.50;91.10;;;;;;4986168;28;20034;-64
2023/10/31 01:18:17;;;;;;;1.85;0.60;;;12.60;91.10;;;;;;4986162;28;20442;-64
2023/10/31 01:20:43;;;;;;;2.53;0.65;;;12.50;91.00;;;;;;4985948;28;20510;-64
2023/10/31 01:23:09;;;;;;;1.20;0.50;;;12.50;91.00;;;;;;4985657;28;20045;-64
2023/10/31 01:25:34;;;;;;;0.50;0.50;;;12.50;90.90;;;;;;4986458;28;20560;-64
2023/10/31 01:28:00;;;;;;;1.02;0.60;;;12.60;91.00;;;;;;4986283;28;20566;-63
2023/10/31 01:30:25;;;;;;;2.05;0.60;;;12.60;91.00;;;;;;4984801;28;20558;-64
2023/10/31 01:32:51;;;;;;;1.17;0.60;;;12.60;91.00;;;;;;4985464;28;20065;-63
2023/10/31 01:35:17;;;;;;;0.65;0.57;;;12.60;91.00;;;;;;4986075;28;20038;-64
2023/10/31 01:37:42;;;;;;;0.65;0.65;;;12.60;90.90;;;;;;4985445;28;20517;-64
2023/10/31 01:40:08;;;;;;;0.70;0.70;;;12.60;90.90;;;;;;4985333;28;20133;-64
2023/10/31 01:42:33;;;;;;;1.15;0.70;;;12.50;90.90;;;;;;4985853;28;20075;-64
2023/10/31 01:44:59;;;;;;;0.60;0.60;;;12.50;90.90;;;;;;4985594;28;20054;-64
2023/10/31 01:47:25;;;;;;;0.57;0.50;;;12.50;90.90;;;;;;4985654;28;20109;-64
2023/10/31 01:49:51;;;;;;;0.90;0.50;;;12.50;91.00;;;;;;4985921;28;20072;-64
2023/10/31 01:52:17;;;;;;;0.63;0.60;;;12.50;91.00;;;;;;4985645;28;20036;-62
2023/10/31 01:54:44;;;;;;;0.77;0.50;;;12.50;91.00;;;;;;4985548;28;20034;-64
2023/10/31 01:57:10;;;;;;;0.52;0.52;;;12.50;90.90;;;;;;4985580;28;20049;-64
2023/10/31 01:59:36;;;;;;;1.20;0.55;;;12.60;90.90;;;;;;4985653;28;20033;-63
2023/10/31 02:02:03;;;;;;;0.50;0.50;;;12.50;90.90;;;;;;4983789;28;20042;-64
2023/10/31 02:04:29;;;;;;;2.33;0.60;;;12.60;91.30;;;;;;4985576;28;20039;-64
2023/10/31 02:06:54;;;;;;;0.80;0.47;;;12.50;90.80;;;;;;4984358;28;20481;-65
2023/10/31 02:09:24;;;;;;;1.73;0.50;;;12.50;90.80;;;;;;4986197;28;20239;-64
2023/10/31 02:11:50;;;;;;;0.68;0.50;;;12.50;90.80;;;;;;4988645;28;20047;-64
2023/10/31 02:14:15;;;;;;;0.55;0.50;;;12.50;90.80;;;;;;4988959;28;20038;-64
2023/10/31 02:16:41;;;;;;;0.75;0.52;;;12.50;90.80;;;;;;4989135;28;20402;-62
2023/10/31 02:19:07;;;;;;;0.32;0.32;;;12.50;90.70;;;;;;4989545;28;20070;-64
2023/10/31 02:21:33;;;;;;;0.52;0.52;;;12.50;90.70;;;;;;4989755;28;20045;-64
2023/10/31 02:24:00;;;;;;;1.23;0.30;;;12.50;90.70;;;;;;4988841;28;20038;-64
2023/10/31 02:26:33;;;;;;;0.63;0.40;;;12.50;90.60;;;;;;4989267;28;20035;-63
2023/10/31 02:28:59;;;;;;;0.38;0.30;;;12.50;90.60;;;;;;4988858;28;20038;-64
2023/10/31 02:31:25;;;;;;;1.27;0.30;;;12.50;90.60;;;;;;4988926;28;20058;-64
2023/10/31 02:33:51;;;;;;;0.50;0.40;;;12.40;90.60;;;;;;4989157;28;20037;-64
2023/10/31 02:36:17;;;;;;;0.57;0.30;;;12.40;90.50;;;;;;4989403;28;20035;-63
2023/10/31 02:38:42;;;;;;;0.90;0.32;;;12.40;90.50;;;;;;4989232;28;20403;-64
2023/10/31 02:41:08;;;;;;;0.50;0.40;;;12.40;90.50;;;;;;4988634;28;20038;-63
2023/10/31 02:43:33;;;;;;;0.40;0.40;;;12.40;90.50;;;;;;4989170;28;20041;-64
2023/10/31 02:45:59;;;;;;;1.23;0.28;;;12.40;90.40;;;;;;4988721;28;20057;-64
2023/10/31 02:48:26;;;;;;;0.28;0.20;;;12.40;90.40;;;;;;4989174;28;20541;-64
2023/10/31 02:50:52;;;;;;;1.70;0.30;;;12.40;90.40;;;;;;4988484;28;20049;-64
2023/10/31 02:53:20;;;;;;;1.20;0.22;;;12.40;90.40;;;;;;4988560;28;20413;-64
2023/10/31 02:55:46;;;;;;;1.27;0.20;;;12.30;90.40;;;;;;4989478;28;20062;-63
2023/10/31 02:58:11;;;;;;;0.52;0.30;;;12.30;90.30;;;;;;4987982;28;20425;-64
2023/10/31 03:00:37;;;;;;;0.88;0.20;;;12.30;90.30;;;;;;4988755;28;20045;-64
2023/10/31 03:03:03;;;;;;;0.55;0.20;;;12.30;90.30;;;;;;4988655;28;20026;-63
2023/10/31 03:05:29;;;;;;;0.40;0.30;;;12.30;90.30;;;;;;4989170;28;20057;-63
2023/10/31 03:07:55;;;;;;;0.35;0.25;;;12.30;90.30;;;;;;4987907;28;20062;-64
2023/10/31 03:10:21;;;;;;;0.93;0.20;;;12.30;90.20;;;;;;4986936;28;20065;-62
2023/10/31 03:12:47;;;;;;;0.45;0.20;;;12.20;90.20;;;;;;4986679;28;20122;-64
2023/10/31 03:15:12;;;;;;;1.20;0.30;;;12.20;90.20;;;;;;4987638;28;20042;-63
2023/10/31 03:17:38;;;;;;;2.28;0.20;;;12.20;90.10;;;;;;4988942;28;20554;-63
2023/10/31 03:20:04;;;;;;;0.20;0.10;;;12.20;90.10;;;;;;4988424;28;20065;-64
2023/10/31 03:22:30;;;;;;;0.85;0.40;;;12.20;90.10;;;;;;4986965;28;20065;-64
2023/10/31 03:24:55;;;;;;;0.45;0.20;;;12.20;90.00;;;;;;4987841;28;20584;-63
2023/10/31 03:27:21;;;;;;;0.43;0.20;;;12.10;90.00;;;;;;4988514;28;20031;-64
2023/10/31 03:29:46;;;;;;;0.20;0.15;;;12.10;90.00;;;;;;4987837;28;20118;-64
2023/10/31 03:32:12;;;;;;;0.93;0.20;;;12.10;90.00;;;;;;4987764;28;20073;-63
2023/10/31 03:34:38;;;;;;;2.63;0.10;;;12.10;90.00;;;;;;4986616;28;20027;-64
2023/10/31 03:37:04;;;;;;;0.45;0.20;;;12.10;90.00;;;;;;4988688;28;20034;-63
2023/10/31 03:39:30;;;;;;;0.60;0.20;;;12.10;90.00;;;;;;4988571;28;20136;-64
2023/10/31 03:41:55;;;;;;;1.48;0.30;;;12.10;90.00;;;;;;4987651;28;20510;-63
2023/10/31 03:44:21;;;;;;;0.95;0.25;;;12.10;89.80;;;;;;4987654;28;20046;-64
2023/10/31 03:46:46;;;;;;;0.65;0.20;;;12.10;89.70;;;;;;4987400;28;20379;-64
2023/10/31 03:49:12;;;;;;;0.43;0.20;;;12.10;89.80;;;;;;4987911;28;20073;-64
2023/10/31 03:51:38;;;;;;;0.77;0.30;;;12.00;89.70;;;;;;4988197;28;20034;-63
2023/10/31 03:54:03;;;;;;;0.75;0.20;;;12.00;89.60;;;;;;4987338;28;20133;-63
2023/10/31 03:56:29;;;;;;;0.50;0.20;;;12.00;89.50;;;;;;4987510;28;20029;-64
2023/10/31 03:58:54;;;;;;;0.77;0.20;;;12.00;89.60;;;;;;4987721;28;20038;-63
2023/10/31 04:01:20;;;;;;;1.92;0.30;;;12.00;89.60;;;;;;4987326;28;20039;-64
2023/10/31 04:03:46;;;;;;;0.60;0.20;;;12.00;89.50;;;;;;4987887;28;20596;-64
2023/10/31 04:06:12;;;;;;;1.10;0.30;;;12.00;89.60;;;;;;4987742;28;20069;-64
2023/10/31 04:08:37;;;;;;;0.88;0.28;;;12.00;89.50;;;;;;4986504;28;20092;-64
2023/10/31 04:11:03;;;;;;;1.20;0.13;;;12.00;89.50;;;;;;4983107;28;20114;-63
2023/10/31 04:13:29;;;;;;;0.20;0.20;;;11.90;89.60;;;;;;4985571;28;20034;-63
2023/10/31 04:15:54;;;;;;;0.68;0.28;;;12.00;89.70;;;;;;4987153;28;20045;-63
2023/10/31 04:18:20;;;;;;;0.28;0.20;;;11.90;89.60;;;;;;4988021;28;20510;-63
2023/10/31 04:20:45;;;;;;;0.50;0.30;;;11.90;89.50;;;;;;4986841;28;20034;-64
2023/10/31 04:23:11;;;;;;;1.20;0.30;;;11.90;89.50;;;;;;4987450;28;20117;-64
2023/10/31 04:25:37;;;;;;;1.55;0.50;;;12.00;89.50;;;;;;4986679;28;20030;-64
2023/10/31 04:28:03;;;;;;;0.55;0.50;;;11.90;89.40;;;;;;4987202;28;20088;-64
2023/10/31 04:30:29;;;;;;;0.98;0.30;;;11.90;89.40;;;;;;4986324;28;20042;-62
2023/10/31 04:32:54;;;;;;;1.75;0.30;;;11.90;89.40;;;;;;4985970;28;20042;-63
2023/10/31 04:35:20;;;;;;;1.30;0.32;;;11.90;89.30;;;;;;4987323;28;20053;-64
2023/10/31 04:37:46;;;;;;;1.70;0.40;;;11.90;89.30;;;;;;4987767;28;20057;-63
2023/10/31 04:40:12;;;;;;;2.05;0.38;;;11.90;89.40;;;;;;4987408;28;20496;-63
2023/10/31 04:42:40;;;;;;;1.10;0.38;;;11.90;89.40;;;;;;4986029;28;20034;-64
2023/10/31 04:45:07;;;;;;;1.10;0.40;;;11.90;89.50;;;;;;4987380;28;20490;-64
2023/10/31 04:47:33;;;;;;;1.02;0.63;;;11.90;89.50;;;;;;4987628;28;20165;-63
2023/10/31 04:49:58;;;;;;;1.15;0.22;;;11.90;89.40;;;;;;4987008;28;20306;-63
2023/10/31 04:52:25;;;;;;;0.60;0.40;;;11.90;89.30;;;;;;4987742;28;20385;-63
2023/10/31 04:54:51;;;;;;;0.65;0.40;;;11.90;89.30;;;;;;4986777;28;20089;-64
2023/10/31 04:57:17;;;;;;;1.23;0.30;;;11.80;89.20;;;;;;4987043;28;20490;-63
2023/10/31 04:59:42;;;;;;;0.77;0.30;;;11.80;89.20;;;;;;4986431;28;20072;-63
2023/10/31 05:02:08;;;;;;;1.10;0.45;;;11.80;89.20;;;;;;4986641;28;20034;-64
2023/10/31 05:04:37;;;;;;;0.80;0.55;;;11.80;89.20;;;;;;4986442;28;20107;-62
2023/10/31 05:07:03;;;;;;;0.95;0.30;;;11.80;89.20;;;;;;4985114;28;20042;-63
2023/10/31 05:09:28;;;;;;;3.10;0.40;;;11.80;89.20;;;;;;4986038;28;20056;-64
2023/10/31 05:11:54;;;;;;;1.38;0.40;;;11.80;89.20;;;;;;4983797;28;20510;-63
2023/10/31 05:14:19;;;;;;;0.85;0.43;;;11.70;89.10;;;;;;4985925;28;20041;-62
2023/10/31 05:16:45;;;;;;;0.40;0.30;;;11.70;89.10;;;;;;4985763;28;20342;-64
2023/10/31 05:19:11;;;;;;;1.17;0.30;;;11.70;89.10;;;;;;4986552;28;20035;-63
2023/10/31 05:21:36;;;;;;;1.92;0.40;;;11.70;89.00;;;;;;4985783;28;20398;-64
2023/10/31 05:24:02;;;;;;;1.17;0.38;;;11.70;89.10;;;;;;4985481;28;20042;-64
2023/10/31 05:26:29;;;;;;;0.35;0.20;;;11.70;89.00;;;;;;4978442;28;20038;-63
2023/10/31 05:28:56;;;;;;;0.28;0.20;;;11.70;89.00;;;;;;4986567;28;20027;-64
2023/10/31 05:31:22;;;;;;;2.30;0.40;;;11.70;88.90;;;;;;4987080;28;20042;-62
2023/10/31 05:33:48;;;;;;;0.55;0.20;;;11.60;88.80;;;;;;4986215;28;20043;-63
2023/10/31 05:36:25;;;;;;;2.90;0.40;;;11.60;88.70;;;;;;4987061;28;20026;-63
2023/10/31 05:38:51;;;;;;;2.42;0.47;;;11.60;88.50;;;;;;4986273;28;20117;-62
2023/10/31 05:41:16;;;;;;;0.85;0.40;;;11.60;88.60;;;;;;4986474;28;20502;-64
2023/10/31 05:43:42;;;;;;;2.67;0.50;;;11.60;88.60;;;;;;4986454;28;20513;-64
2023/10/31 05:46:13;;;;;;;0.90;0.45;;;11.60;88.50;;;;;;4986191;28;20046;-64
2023/10/31 05:48:46;;;;;;;2.50;0.38;;;11.50;88.40;;;;;;4986082;28;20065;-64
2023/10/31 05:51:16;;;;;;;0.98;0.47;;;11.60;88.50;;;;;;4986313;28;20028;-64
2023/10/31 05:53:44;;;;;;;1.00;0.30;;;11.50;88.30;;;;;;4986000;28;20084;-64
2023/10/31 05:56:11;;;;;;;0.90;0.47;;;11.50;88.50;;;;;;4986177;28;20137;-64
2023/10/31 05:58:40;;;;;;;1.52;0.57;;;11.50;88.40;;;;;;4985991;28;20125;-64
2023/10/31 06:01:06;;;;;;;1.17;0.35;;;11.50;88.30;;;;;;4986235;28;20092;-63
2023/10/31 06:03:32;;;;;;;1.40;0.40;;;11.50;88.30;;;;;;4986792;28;20027;-63
2023/10/31 06:05:58;;;;;;;0.55;0.40;;;11.40;88.30;;;;;;4986199;28;20683;-63
2023/10/31 06:08:24;;;;;;;1.02;0.40;;;11.40;88.20;;;;;;4985147;28;20034;-63
2023/10/31 06:10:50;;;;;;;0.90;0.40;;;11.40;88.10;;;;;;4985679;28;20084;-62
2023/10/31 06:13:16;;;;;;;1.33;0.47;;;11.40;88.10;;;;;;4985771;28;20042;-64
2023/10/31 06:15:42;;;;;;;1.05;0.38;;;11.40;88.20;;;;;;4985154;28;20069;-63
2023/10/31 06:18:08;;;;;;;1.13;0.40;;;11.40;88.30;;;;;;4986210;28;20070;-63
2023/10/31 06:20:34;;;;;;;0.93;0.40;;;11.30;88.20;;;;;;4985998;28;20601;-63
2023/10/31 06:23:03;;;;;;;1.02;0.50;;;11.30;88.20;;;;;;4985820;28;20063;-63
2023/10/31 06:25:29;;;;;;;1.95;0.50;;;11.30;88.10;;;;;;4986214;28;20026;-64
2023/10/31 06:27:55;;;;;;;0.90;0.70;;;11.30;88.10;;;;;;4986125;28;20027;-63
2023/10/31 06:30:20;;;;;;;1.13;0.80;;;11.30;88.10;;;;;;4986207;28;20049;-64
2023/10/31 06:32:46;;;;;;;2.35;0.68;;;11.30;88.10;;;;;;4985292;28;20129;-64
2023/10/31 06:35:12;;;;;;;1.15;0.57;;;11.30;88.10;;;;;;4986147;28;20043;-64
2023/10/31 06:37:38;;;;;;;2.20;0.40;;;11.30;88.10;;;;;;4985834;28;20315;-64
2023/10/31 06:40:04;;;;;;;2.30;0.50;;;11.30;88.00;;;;;;4986142;28;20378;-63
2023/10/31 06:42:30;;;;;;;1.25;0.50;;;11.30;88.00;;;;;;4985328;28;20069;-64
2023/10/31 06:44:56;;;;;;;1.02;0.70;;;11.30;87.90;;;;;;4985368;28;20054;-63
2023/10/31 06:47:21;;;;;;;0.98;0.73;;;11.30;87.80;;;;;;4985904;28;20050;-64
2023/10/31 06:49:47;;;;;;;1.05;0.60;;;11.30;87.80;;;;;;4985149;28;20073;-63
2023/10/31 06:52:12;;;;;;;1.40;0.57;;;11.30;87.70;;;;;;4985948;28;20564;-63
2023/10/31 06:54:38;;;;;;;1.45;0.50;;;11.30;87.70;;;;;;4985501;28;20034;-62
2023/10/31 06:57:04;;;;;;;2.08;0.80;;;11.30;87.70;;;;;;4987810;28;20100;-64
2023/10/31 06:59:29;;;;;;;1.75;0.52;;;11.30;87.80;;;;;;4989760;28;20057;-62
2023/10/31 07:01:55;;;;;;;1.35;0.35;;;11.30;88.60;;;;;;4989119;28;20332;-63
2023/10/31 07:04:21;;;;;;;1.90;0.60;;;11.30;87.80;;;;;;4988666;28;20450;-64
2023/10/31 07:06:46;;;;;;;2.70;0.60;;;11.30;87.80;;;;;;4988620;28;20045;-63
2023/10/31 07:09:12;;;;;;;1.85;0.60;;;11.30;87.80;;;;;;4987883;28;20066;-63
2023/10/31 07:11:37;;;;;;;2.05;0.82;;;11.30;87.70;;;;;;4986380;28;20030;-63
2023/10/31 07:14:03;;;;;;;1.88;0.50;;;11.30;87.70;;;;;;4988858;28;20030;-63
2023/10/31 07:16:32;;;;;;;1.50;0.40;;;11.30;87.80;;;;;;4989097;28;20093;-64
2023/10/31 07:18:57;;;;;;;3.00;0.70;;;11.30;87.80;;;;;;4988980;28;20031;-64
2023/10/31 07:21:23;;;;;;;3.30;0.70;;;11.30;87.70;;;;;;4988890;28;20677;-64
2023/10/31 07:23:49;;;;;;;3.90;0.70;;;11.30;87.80;;;;;;4988935;28;20050;-63
2023/10/31 07:26:15;;;;;;;2.65;0.73;;;11.30;87.80;;;;;;4989009;28;20137;-63
2023/10/31 07:28:40;;;;;;;2.42;0.80;;;11.30;87.80;;;;;;4988465;28;20062;-63
2023/10/31 07:31:07;;;;;;;1.85;1.10;;;11.40;87.90;;;;;;4987320;28;20072;-63
2023/10/31 07:33:32;;;;;;;5.78;1.08;;;11.40;87.80;;;;;;4988700;28;20030;-63
2023/10/31 07:35:58;;;;;;;3.78;1.42;;;11.40;87.80;;;;;;4988397;28;20026;-63
2023/10/31 07:38:23;;;;;;;2.55;1.17;;;11.40;87.80;;;;;;4989074;28;20034;-63
2023/10/31 07:40:49;;;;;;;1.58;0.80;;;11.40;87.80;;;;;;4988096;28;20053;-63
2023/10/31 07:43:15;;;;;;;2.60;0.98;;;11.40;87.80;;;;;;4988374;28;20030;-63
2023/10/31 07:45:41;;;;;;;2.17;0.68;;;11.40;87.80;;;;;;4988679;28;20508;-64
2023/10/31 07:48:08;;;;;;;8.10;0.95;;;11.40;87.70;;;;;;4988892;28;20030;-64
2023/10/31 07:50:34;;;;;;;3.55;0.70;;;11.50;87.80;;;;;;4988085;28;20326;-64
2023/10/31 07:52:59;;;;;;;3.63;0.80;;;11.50;87.80;;;;;;4988166;28;20136;-62
2023/10/31 07:55:25;;;;;;;3.72;0.70;;;11.50;87.80;;;;;;4988610;28;20030;-64
2023/10/31 07:57:51;;;;;;;1.42;0.90;;;11.50;87.80;;;;;;4988629;28;20040;-63
2023/10/31 08:00:16;;;;;;;2.67;0.60;;;11.50;87.80;;;;;;4988555;28;20055;-63
2023/10/31 08:02:42;;;;;;;2.50;0.57;;;11.50;87.90;;;;;;4987981;28;20095;-62
2023/10/31 08:05:08;;;;;;;1.42;0.55;;;11.50;87.80;;;;;;4987943;28;20517;-62
2023/10/31 08:07:33;;;;;;;2.10;0.60;;;11.60;87.80;;;;;;4987382;28;20034;-63
2023/10/31 08:09:59;;;;;;;2.70;0.70;;;11.70;87.90;;;;;;4988186;28;20490;-63
2023/10/31 08:12:24;;;;;;;2.83;0.93;;;11.60;87.80;;;;;;4987269;28;20030;-63
2023/10/31 08:14:50;;;;;;;3.38;1.55;;;11.60;88.60;;;;;;4988117;28;20022;-63
2023/10/31 08:17:15;;;;;;;3.03;1.10;;;11.60;87.80;;;;;;4988184;28;20034;-63
2023/10/31 08:19:42;;;;;;;2.85;0.80;;;11.60;87.80;;;;;;4986891;28;20022;-63
2023/10/31 08:22:08;;;;;;;3.75;0.95;;;11.70;87.80;;;;;;4986809;28;20455;-63
2023/10/31 08:24:35;;;;;;;4.35;0.70;;;11.70;87.70;;;;;;4987177;28;20035;-63
2023/10/31 08:27:02;;;;;;;3.28;0.80;;;11.70;87.60;;;;;;4987685;28;20041;-63
2023/10/31 08:29:27;;;;;;;1.92;0.63;;;11.70;87.70;;;;;;4987987;28;20045;-63
2023/10/31 08:31:53;;;;;;;3.33;0.77;;;11.80;87.60;;;;;;4987865;28;20042;-63
2023/10/31 08:34:18;;;;;;;1.83;0.60;;;11.80;87.50;;;;;;4987812;28;20087;-63
2023/10/31 08:36:44;;;;;;;1.35;0.80;;;11.80;87.50;;;;;;4987593;28;20045;-63
2023/10/31 08:39:09;;;;;;;3.25;0.82;;;11.90;87.50;;;;;;4987647;28;20517;-63
2023/10/31 08:41:37;;;;;;;3.00;0.82;;;11.90;87.40;;;;;;4987912;28;20050;-63
2023/10/31 08:44:03;;;;;;;3.47;0.52;;;11.90;87.40;;;;;;4987319;28;20049;-63
2023/10/31 08:46:29;;;;;;;5.40;0.85;;;11.90;87.40;;;;;;4987166;28;20030;-64
2023/10/31 08:48:54;;;;;;;3.35;0.70;;;11.90;87.20;;;;;;4987266;28;20398;-62
2023/10/31 08:51:20;;;;;;;2.28;0.75;;;12.00;87.30;;;;;;4987465;28;20034;-63
2023/10/31 08:53:45;;;;;;;1.13;0.60;;;12.00;87.10;;;;;;4987310;28;20038;-63
2023/10/31 08:56:11;;;;;;;2.42;0.60;;;12.00;86.90;;;;;;4987239;28;20042;-63
2023/10/31 08:58:36;;;;;;;2.67;0.73;;;12.10;86.90;;;;;;4987464;28;20528;-63
2023/10/31 09:01:02;;;;;;;7.68;1.02;;;12.10;86.80;;;;;;4986643;28;20034;-64
2023/10/31 09:03:28;;;;;;;1.30;0.93;;;12.10;86.60;;;;;;4985265;28;20026;-63
2023/10/31 09:05:53;;;;;;;2.13;0.60;;;12.10;86.70;;;;;;4988458;28;20026;-63
2023/10/31 09:08:19;;;;;;;2.00;0.70;;;12.10;86.60;;;;;;4987723;28;20525;-64
2023/10/31 09:10:46;;;;;;;1.75;0.52;;;12.20;86.60;;;;;;4986642;28;22133;-63
2023/10/31 09:13:12;;;;;;;2.78;0.85;;;12.20;86.60;;;;;;4987916;28;20097;-62
2023/10/31 09:15:38;;;;;;;2.85;0.85;;;12.20;86.60;;;;;;4988578;28;20026;-63
2023/10/31 09:18:04;;;;;;;2.80;0.70;;;12.30;86.60;;;;;;4987955;28;20410;-63
2023/10/31 09:20:30;;;;;;;2.00;0.60;;;12.30;86.50;;;;;;4987004;28;20498;-63
2023/10/31 09:22:56;;;;;;;2.70;0.75;;;12.30;86.50;;;;;;4987670;28;20395;-63
2023/10/31 09:25:21;;;;;;;4.10;0.80;;;12.40;86.20;;;;;;4987632;28;20242;-63
2023/10/31 09:27:47;;;;;;;1.58;0.60;;;12.40;86.20;;;;;;4987721;28;20041;-63
2023/10/31 09:30:13;;;;;;;2.88;0.70;;;12.50;86.20;;;;;;4988086;28;20038;-62
2023/10/31 09:32:38;;;;;;;4.55;0.98;;;12.50;86.20;;;;;;4986990;28;20062;-63
2023/10/31 09:35:04;;;;;;;4.20;0.80;;;12.60;86.00;;;;;;4987520;28;20084;-64
2023/10/31 09:37:30;;;;;;;2.63;0.80;;;12.60;86.00;;;;;;4987419;28;20118;-63
2023/10/31 09:39:55;;;;;;;2.70;0.77;;;12.60;86.00;;;;;;4987923;28;20030;-63
2023/10/31 09:42:21;;;;;;;2.88;0.77;;;12.60;85.50;;;;;;4987120;28;20031;-63
2023/10/31 09:44:46;;;;;;;1.33;0.60;;;12.70;85.50;;;;;;4986947;28;20053;-63
2023/10/31 09:47:12;;;;;;;2.42;0.50;;;12.70;85.40;;;;;;4987540;28;20042;-64
2023/10/31 09:49:38;;;;;;;1.88;0.80;;;12.70;85.40;;;;;;4988149;28;20081;-63
2023/10/31 09:52:04;;;;;;;2.35;0.65;;;12.80;85.30;;;;;;4987627;28;20031;-63
2023/10/31 09:54:29;;;;;;;2.30;0.60;;;12.80;85.10;;;;;;4986946;28;20421;-63
2023/10/31 09:56:55;;;;;;;3.47;0.85;;;12.80;85.10;;;;;;4987859;28;20041;-63
2023/10/31 09:59:21;;;;;;;0.95;0.60;;;12.90;85.00;;;;;;4988063;28;20478;-63
2023/10/31 10:01:46;;;;;;;2.50;0.90;;;12.90;84.80;;;;;;4987283;28;20564;-64
2023/10/31 10:04:12;;;;;;;1.42;0.52;;;12.90;84.60;;;;;;4987257;28;20045;-63
2023/10/31 10:06:50;;;;;;;1.85;0.68;;;12.90;84.50;;;;;;4987192;28;20065;-63
2023/10/31 10:09:16;;;;;;;3.75;0.85;;;13.00;83.90;;;;;;4986115;28;20506;-63
2023/10/31 10:11:41;;;;;;;1.95;0.90;;;12.90;84.20;;;;;;4986780;28;20045;-63
2023/10/31 10:14:09;;;;;;;2.78;0.80;;;13.00;84.20;;;;;;4987039;28;20549;-63
2023/10/31 10:16:34;;;;;;;4.07;1.00;;;13.00;84.30;;;;;;4987330;28;20034;-64
2023/10/31 10:19:22;;;;;;;1.92;0.70;;;13.00;84.40;;;;;;4987607;28;20037;-64
2023/10/31 10:21:55;;;;;;;4.35;0.75;;;13.10;83.30;;;;;;4986871;28;20022;-63
2023/10/31 10:24:22;;;;;;;2.78;0.60;;;13.10;84.00;;;;;;4987388;28;20117;-62
2023/10/31 10:26:48;;;;;;;3.45;0.50;;;13.10;84.10;;;;;;4986703;28;20502;-63
2023/10/31 10:29:15;;;;;;;1.40;0.70;;;13.20;83.90;;;;;;4987558;28;20038;-64
2023/10/31 10:31:42;;;;;;;5.60;0.93;;;13.20;84.00;;;;;;4988745;28;20042;-63
2023/10/31 10:34:13;;;;;;;1.30;0.60;;;13.20;83.90;;;;;;4990721;28;20038;-63
2023/10/31 10:36:39;;;;;;;3.22;0.77;;;13.30;83.80;;;;;;4990968;28;20505;-63
2023/10/31 10:39:07;;;;;;;0.60;0.40;;;13.30;83.60;;;;;;4991160;28;20062;-63
2023/10/31 10:41:35;;;;;;;2.13;0.85;;;13.40;83.60;;;;;;4991259;28;20058;-63
2023/10/31 10:44:07;;;;;;;4.95;0.80;;;13.40;83.70;;;;;;4990508;28;20126;-63
2023/10/31 10:46:36;;;;;;;0.80;0.47;;;13.40;83.50;;;;;;4990578;28;20061;-62
2023/10/31 10:49:06;;;;;;;2.70;0.50;;;13.40;83.60;;;;;;4990791;28;20041;-64
2023/10/31 10:51:58;;;;;;;1.38;0.45;;;13.50;83.40;;;;;;4990841;28;20043;-64
2023/10/31 10:54:34;;;;;;;2.65;0.55;;;13.60;82.70;;;;;;4991041;28;20106;-63
2023/10/31 10:57:16;;;;;;;1.33;0.35;;;13.60;83.20;;;;;;4990466;28;20397;-64
2023/10/31 10:59:49;;;;;;;1.05;0.30;;;13.70;82.90;;;;;;4991009;28;20027;-62
2023/10/31 11:02:15;;;;;;;1.15;0.30;;;13.70;83.20;;;;;;4989716;28;20042;-62
2023/10/31 11:04:42;;;;;;;0.40;0.20;;;13.70;83.00;;;;;;4989767;28;20117;-63
2023/10/31 11:07:08;;;;;;;1.02;0.38;;;13.70;82.40;;;;;;4989691;28;20034;-63
2023/10/31 11:09:34;;;;;;;0.68;0.20;;;13.80;82.30;;;;;;4989623;28;20077;-61
2023/10/31 11:12:01;;;;;;;0.30;0.30;;;13.80;82.20;;;;;;4989462;28;20038;-63
2023/10/31 11:14:29;;;;;;;1.45;0.30;;;13.80;82.20;;;;;;4989361;28;20050;-64
2023/10/31 11:16:59;;;;;;;1.08;0.35;;;13.80;82.20;;;;;;4989724;28;20041;-63
2023/10/31 11:19:27;;;;;;;2.70;0.30;;;13.80;82.20;;;;;;4990387;28;20525;-64
2023/10/31 11:22:00;;;;;;;0.80;0.30;;;13.80;82.00;;;;;;4990293;28;20425;-63
2023/10/31 11:24:37;;;;;;;0.30;0.22;;;13.80;82.10;;;;;;4989603;28;20129;-64
2023/10/31 11:27:05;;;;;;;1.05;0.50;;;13.80;82.20;;;;;;4989854;28;20540;-63
2023/10/31 11:29:32;;;;;;;0.93;0.40;;;13.80;82.40;;;;;;4989449;28;20498;-63
2023/10/31 11:31:58;;;;;;;0.70;0.50;;;13.80;82.70;;;;;;4989669;28;20034;-63
2023/10/31 11:34:27;;;;;;;1.13;0.50;;;13.70;82.90;;;;;;4990127;28;20060;-64
2023/10/31 11:36:53;;;;;;;1.52;0.50;;;13.70;83.60;;;;;;4990079;28;20410;-63
2023/10/31 11:39:25;;;;;;;1.05;0.70;;;13.70;84.00;;;;;;4990598;28;20030;-62
2023/10/31 11:41:55;;;;;;;0.93;0.60;;;13.70;84.20;;;;;;4989769;28;20061;-64
2023/10/31 11:44:27;;;;;;;1.20;0.63;;;13.60;84.20;;;;;;4989859;28;20060;-63
2023/10/31 11:46:53;;;;;;;2.70;1.35;;;13.70;83.90;;;;;;4989875;28;20104;-63
2023/10/31 11:49:48;;;;;;;1.02;0.93;;;13.70;84.60;;;;;;4989678;28;20446;-63
2023/10/31 11:52:17;;;;;;;1.85;0.80;;;13.70;83.60;;;;;;4989066;28;20030;-63
2023/10/31 11:54:43;;;;;;;0.70;0.70;;;13.60;83.70;;;;;;4988968;28;20372;-63
2023/10/31 11:57:08;;;;;;;1.48;0.52;;;13.70;83.80;;;;;;4989911;28;20057;-63
2023/10/31 11:59:38;;;;;;;1.50;0.60;;;13.70;83.90;;;;;;4990359;28;20422;-64
2023/10/31 12:02:18;;;;;;;1.58;0.50;;;13.70;83.80;;;;;;4997035;28;20125;-65
2023/10/31 12:04:44;;;;;;;2.08;0.70;;;13.70;83.80;;;;;;4997865;28;20117;-64
2023/10/31 12:07:10;;;;;;;1.38;0.57;;;13.70;84.10;;;;;;4989913;28;20030;-64
2023/10/31 12:09:48;;;;;;;0.60;0.60;;;13.70;84.10;;;;;;4988798;28;20056;-63
2023/10/31 12:12:14;;;;;;;1.98;0.70;;;13.80;83.60;;;;;;4989320;28;20035;-64
2023/10/31 12:14:40;;;;;;;2.70;0.60;;;13.70;83.70;;;;;;4989266;28;20060;-64
2023/10/31 12:17:10;;;;;;;3.17;1.00;;;13.80;83.60;;;;;;4988299;28;20042;-63
2023/10/31 12:19:36;;;;;;;0.60;0.60;;;13.80;83.40;;;;;;4989900;28;20041;-64
2023/10/31 12:22:02;;;;;;;0.93;0.70;;;13.80;83.40;;;;;;4988768;28;20357;-64
2023/10/31 12:24:28;;;;;;;1.83;0.65;;;13.80;83.40;;;;;;4988783;28;20402;-63
2023/10/31 12:26:54;;;;;;;0.75;0.60;;;13.80;83.40;;;;;;4987739;28;20031;-64
2023/10/31 12:29:21;;;;;;;2.25;0.52;;;13.80;83.50;;;;;;4989585;28;20125;-64
2023/10/31 12:31:54;;;;;;;1.13;0.57;;;13.90;83.70;;;;;;4989174;28;20066;-62
2023/10/31 12:34:24;;;;;;;1.48;0.80;;;13.80;83.60;;;;;;4989073;28;20057;-63
2023/10/31 12:36:54;;;;;;;1.38;0.80;;;13.90;83.40;;;;;;4988641;28;20027;-62
2023/10/31 12:39:28;;;;;;;1.73;0.60;;;13.90;83.00;;;;;;4989434;28;20033;-62
2023/10/31 12:41:54;;;;;;;1.10;0.70;;;13.90;82.90;;;;;;4988765;28;20038;-64
2023/10/31 12:44:25;;;;;;;1.50;0.80;;;14.00;83.20;;;;;;4987986;28;20049;-63